Abbottabad Weather



Abbottabad's Current Weather

Temprature 9.44o light rain

light rain

Rain: 31 %

Min Temprature9.44o
Max Temprature9.44o
Humidity90
Wind Speed1.79 m/h
Sun Rise07:04:36
Sun Set16:58:40
Current Time: 14-Dec-2019 08:12:40
Lat/Lon: 34.14, 73.21




Abbottabad's Geo Location



Abbottabad's Weather Forecast

Time Overall Temp Min Temp Max Temp Humidity Wind Speed Rain
14-Dec-2019 (Sat)
11:00:00 light rain 13.240 12.300 13.240 65 1.64 m/h 200 %
14:00:00 moderate rain 13.010 12.300 13.010 66 2.37 m/h 344 %
17:00:00 light rain 11.070 10.600 11.070 74 1.66 m/h 181 %
20:00:00 overcast clouds 8.930 8.690 8.930 79 2.53 m/h 0 %
23:00:00 broken clouds 7.590 7.590 7.590 76 3.13 m/h 0 %
15-Dec-2019 (Sun)
02:00:00 scattered clouds 7.110 7.110 7.110 72 2.65 m/h 0 %
05:00:00 few clouds 6.610 6.610 6.610 71 2.26 m/h 0 %
08:00:00 clear sky 7.270 7.270 7.270 68 1.77 m/h 0 %
11:00:00 clear sky 11.970 11.970 11.970 48 1.95 m/h 0 %
14:00:00 clear sky 14.080 14.080 14.080 43 2.02 m/h 0 %
17:00:00 clear sky 9.940 9.940 9.940 66 0.96 m/h 0 %
20:00:00 clear sky 8.730 8.730 8.730 66 1.7 m/h 0 %
23:00:00 clear sky 8.080 8.080 8.080 56 2.2 m/h 0 %
16-Dec-2019 (Mon)
02:00:00 clear sky 7.290 7.290 7.290 49 2.8 m/h 0 %
05:00:00 clear sky 6.420 6.420 6.420 43 2.55 m/h 0 %
08:00:00 clear sky 6.910 6.910 6.910 43 2.57 m/h 0 %
11:00:00 clear sky 13.170 13.170 13.170 28 2.15 m/h 0 %
14:00:00 clear sky 15.480 15.480 15.480 24 2.16 m/h 0 %
17:00:00 clear sky 9.890 9.890 9.890 43 0.9 m/h 0 %
20:00:00 clear sky 8.840 8.840 8.840 43 2.66 m/h 0 %
23:00:00 clear sky 7.730 7.730 7.730 38 3.33 m/h 0 %
17-Dec-2019 (Tue)
02:00:00 clear sky 6.570 6.570 6.570 36 3.19 m/h 0 %
05:00:00 clear sky 6.080 6.080 6.080 34 3.58 m/h 0 %
08:00:00 scattered clouds 6.180 6.180 6.180 32 2.62 m/h 0 %
11:00:00 few clouds 12.970 12.970 12.970 21 2.44 m/h 0 %
14:00:00 clear sky 15.970 15.970 15.970 18 2.12 m/h 0 %
17:00:00 clear sky 9.530 9.530 9.530 34 0.98 m/h 0 %
20:00:00 overcast clouds 8.990 8.990 8.990 35 2.8 m/h 0 %
23:00:00 overcast clouds 8.100 8.100 8.100 34 2.84 m/h 0 %
18-Dec-2019 (Wed)
02:00:00 overcast clouds 7.090 7.090 7.090 33 2.31 m/h 0 %
05:00:00 overcast clouds 7.360 7.360 7.360 29 2.78 m/h 0 %
08:00:00 overcast clouds 8.160 8.160 8.160 28 2.38 m/h 0 %
11:00:00 overcast clouds 12.310 12.310 12.310 23 1.81 m/h 0 %
14:00:00 overcast clouds 15.040 15.040 15.040 21 1.84 m/h 0 %
17:00:00 overcast clouds 11.210 11.210 11.210 30 0.76 m/h 0 %
20:00:00 broken clouds 9.370 9.370 9.370 33 1.58 m/h 0 %
23:00:00 broken clouds 9.060 9.060 9.060 36 1.16 m/h 0 %
19-Dec-2019 (Thu)
02:00:00 overcast clouds 8.270 8.270 8.270 36 2.05 m/h 0 %
05:00:00 overcast clouds 7.480 7.480 7.480 34 1.81 m/h 0 %
08:00:00 clear sky 7.790 7.790 7.790 36 1.81 m/h 0 %


Abbottabad's Tourist Spots

Historical Places in Abbottabad

Famous Cities (61)